Altmar, NY

7:33 PM EST on March 05, 2015 (GMT -0500)
Lorton Lake Back End | Change Station
CLOSE
Current Station
Personal Weather Station
Location: Altmar, NY
Elevation: 870 ft
Nearby Weather Stations

Elev 870 ft 43.50 °N, 75.89 °W | Updated 14 minutes ago

Mostly Cloudy
Mostly Cloudy
4.7 °F
Feels Like 5 °F
N
0.0
Wind Variable Wind from NW

Today
High -- | Low -- °F
--% Chance of Precip.
Yesterday
High -- | Low -- °F
Precip. -- in
6:34 AM 5:57 PM
Full, 100% visible
Pressure 30.38 in
Visibility 10.0 miles
Clouds Mostly Cloudy 4000 ft
Windchill 5 °F
Dew Point -7 °F
Humidity 59%
Rainfall in
Snow Depth Not available.
UV 0 out of 12
Pollen .40 out of 12
Air Quality Not available.
Flu Activity Not available.
METAR KFZY 052354Z AUTO 27003KT 10SM BKN040 M13/M17 A3034 RMK AO2 SLP286 60000 T11281172 11089 21128 53017

More Conditions Fewer Conditions

Pressure 30.38 in
Visibility 10.0 miles
Clouds Mostly Cloudy 4000 ft
Windchill 5 °F
Dew Point -7 °F
Humidity 59%
Rainfall in
Snow Depth Not available.
UV 0 out of 12
Pollen .40 out of 12
Air Quality Not available.
Flu Activity Not available.
METAR KFZY 052354Z AUTO 27003KT 10SM BKN040 M13/M17 A3034 RMK AO2 SLP286 60000 T11281172 11089 21128 53017

More Conditions Fewer Conditions

10-Day Weather Forecast

Almanac

Astronomy

Mar. 05, 2015 Rise Set
Actual Time
Civil Twilight
Nautical Twilight
Astronomical Twilight
Moon
Length of Visible Light
Length of Day
Tomorrow will be .
, % of the Moon is Illuminated

Today's Extremes

State Highs State Lows

Community

WunderPhotos

Upload Photos

1,803,071 photos uploaded!

WunderBlogs® & News

Nearby

Air Quality

  Air Quality AQ Index Pollutant
Not available.

Snow Depth

Station Depth Elevation

Earthquake Activity

City Distance Mag. Time & Date
Minimum magnitude displayed is 2.5.

Coastal Water Temperatures

Place Temperature

Nearby Weather Stations